Time;durP1;ratioP1;P1;durP2;ratioP2;P2;SDS_P1;SDS_P2;PMS_P1;PMS_P2;Temp;Humidity;BMP_temperature;BMP_pressure;BME280_temperature;BME280_humidity;BME280_pressure;Samples;Min_cycle;Max_cycle;Signal;HPM_P1;HPM_P2
2022/06/15 00:01:03;;;;;;;11.63;2.38;;;;;;;13.88;100.00;101573.81;4848566;29;20113;-82
2022/06/15 00:03:32;;;;;;;11.27;2.50;;;;;;;13.85;100.00;101585.88;4849626;29;20030;-82
2022/06/15 00:06:09;;;;;;;13.82;2.67;;;;;;;13.80;100.00;101575.63;4865526;29;20033;-81
2022/06/15 00:08:34;;;;;;;13.00;2.83;;;;;;;13.83;100.00;101569.84;4863906;29;20530;-83
2022/06/15 00:11:05;;;;;;;12.95;2.60;;;;;;;13.82;100.00;101581.69;4864882;29;20045;-82
2022/06/15 00:13:30;;;;;;;15.88;2.95;;;;;;;13.80;100.00;101577.50;4867078;29;20108;-83
2022/06/15 00:15:56;;;;;;;14.57;3.13;;;;;;;13.77;100.00;101580.63;4847490;29;20182;-82
2022/06/15 00:18:21;;;;;;;10.98;2.58;;;;;;;13.68;100.00;101560.22;4863755;29;20080;-83
2022/06/15 00:20:46;;;;;;;15.52;2.83;;;;;;;13.68;100.00;101565.63;4864717;29;20033;-83
2022/06/15 00:23:12;;;;;;;11.73;2.35;;;;;;;13.65;100.00;101555.22;4881750;29;20098;-84
2022/06/15 00:25:37;;;;;;;11.45;2.88;;;;;;;13.74;100.00;101573.78;4862569;29;20040;-81
2022/06/15 00:28:03;;;;;;;13.95;2.60;;;;;;;13.60;100.00;101542.28;4863820;29;20034;-81
2022/06/15 00:30:28;;;;;;;13.18;2.63;;;;;;;13.61;100.00;101552.91;4862819;29;20041;-80
2022/06/15 00:32:53;;;;;;;11.90;2.30;;;;;;;13.73;100.00;101573.94;4855884;29;20029;-81
2022/06/15 00:35:19;;;;;;;16.08;2.97;;;;;;;13.65;100.00;101556.03;4865121;29;20039;-81
2022/06/15 00:37:44;;;;;;;14.48;2.90;;;;;;;13.75;100.00;101570.03;4859284;29;20367;-81
2022/06/15 00:40:10;;;;;;;14.40;3.30;;;;;;;13.74;100.00;101556.69;4865552;29;20065;-82
2022/06/15 00:42:35;;;;;;;17.08;3.00;;;;;;;13.69;100.00;101549.19;4880925;29;20108;-82
2022/06/15 00:45:01;;;;;;;21.77;3.63;;;;;;;13.80;100.00;101558.59;4867211;29;20078;-81
2022/06/15 00:47:31;;;;;;;9.38;2.65;;;;;;;13.77;100.00;101558.97;4846470;29;20472;-83
2022/06/15 00:50:07;;;;;;;14.90;3.08;;;;;;;13.79;100.00;101560.47;4864128;29;20029;-82
2022/06/15 00:53:08;;;;;;;14.55;3.10;;;;;;;13.82;100.00;101564.63;4863080;29;20030;-82
2022/06/15 00:55:35;;;;;;;13.50;2.78;;;;;;;13.83;100.00;101561.72;4862831;29;20021;-81
2022/06/15 00:58:04;;;;;;;11.98;2.72;;;;;;;13.83;100.00;101561.72;4830764;29;20042;-82
2022/06/15 01:00:30;;;;;;;15.43;3.65;;;;;;;13.80;100.00;101550.47;4846698;29;20025;-84
2022/06/15 01:02:55;;;;;;;16.33;2.53;;;;;;;13.82;100.00;101559.22;4847433;29;20105;-81
2022/06/15 01:05:37;;;;;;;15.60;3.60;;;;;;;13.86;100.00;101560.47;4869183;29;20030;-83
2022/06/15 01:08:21;;;;;;;14.70;2.80;;;;;;;13.86;100.00;101552.38;4868369;29;20108;-83
2022/06/15 01:11:03;;;;;;;22.17;3.50;;;;;;;13.96;100.00;101557.41;4886023;29;20029;-83
2022/06/15 01:13:43;;;;;;;14.23;3.05;;;;;;;13.97;100.00;101559.91;4870449;29;20036;-83
2022/06/15 01:16:32;;;;;;;17.48;3.70;;;;;;;14.02;100.00;101562.84;4867137;29;20108;-82
2022/06/15 01:19:06;;;;;;;13.35;2.78;;;;;;;14.05;100.00;101557.00;4851572;29;20042;-83
2022/06/15 01:21:44;;;;;;;15.82;2.83;;;;;;;13.99;100.00;101552.41;4850099;29;20029;-83
2022/06/15 01:24:47;;;;;;;9.73;2.78;;;;;;;14.01;100.00;101544.94;4867832;29;20029;-82
2022/06/15 01:27:24;;;;;;;18.55;3.63;;;;;;;14.18;100.00;101571.63;4853723;29;20045;-81
2022/06/15 01:30:10;;;;;;;16.40;3.15;;;;;;;14.20;100.00;101573.06;4850601;29;20060;-83
2022/06/15 01:32:55;;;;;;;14.93;3.03;;;;;;;14.18;100.00;101564.34;4866394;29;20128;-82
2022/06/15 01:35:41;;;;;;;;;;;;;;;14.21;100.00;101572.06;4868610;29;20030;-83
2022/06/15 01:38:38;;;;;;;16.63;3.58;;;;;;;14.21;100.00;101568.53;4865291;29;19985;-82
2022/06/15 01:41:10;;;;;;;16.50;3.50;;;;;;;14.17;100.00;101553.69;4866511;29;20124;-82
2022/06/15 01:43:43;;;;;;;17.48;3.03;;;;;;;14.22;100.00;101557.47;4866059;29;20029;-83
2022/06/15 01:46:09;;;;;;;21.02;3.58;;;;;;;14.32;100.00;101574.16;4865588;29;20135;-81
2022/06/15 01:48:37;;;;;;;20.95;3.90;;;;;;;14.30;100.00;101561.84;4877088;29;20113;-80
2022/06/15 01:51:10;;;;;;;16.05;3.22;;;;;;;14.33;100.00;101570.41;4849837;29;20079;-81
2022/06/15 01:53:39;;;;;;;13.48;2.72;;;;;;;14.37;100.00;101575.41;4872051;29;20037;-81
2022/06/15 01:56:15;;;;;;;12.25;3.03;;;;;;;14.31;100.00;101567.06;4875027;29;20036;-81
2022/06/15 01:58:45;;;;;;;17.02;3.47;;;;;;;14.34;100.00;101571.25;4883662;29;20035;-82
2022/06/15 02:01:37;;;;;;;14.40;2.90;;;;;;;14.41;100.00;101573.97;4860057;29;20084;-81
2022/06/15 02:04:13;;;;;;;17.08;4.55;;;;;;;14.34;100.00;101572.09;4865098;29;20044;-82
2022/06/15 02:06:38;;;;;;;17.17;3.65;;;;;;;14.43;100.00;101574.59;4865414;29;20044;-80
2022/06/15 02:09:15;;;;;;;11.60;2.85;;;;;;;14.43;100.00;101574.59;4866137;29;20036;-81
2022/06/15 02:11:42;;;;;;;17.20;2.90;;;;;;;14.46;100.00;101580.41;4884314;29;20448;-83
2022/06/15 02:14:15;;;;;;;15.27;2.90;;;;;;;14.43;100.00;101586.25;4855168;29;20037;-81
2022/06/15 02:16:45;;;;;;;15.98;3.50;;;;;;;14.40;100.00;101565.00;4864913;29;20032;-82
2022/06/15 02:19:15;;;;;;;14.55;3.00;;;;;;;14.46;100.00;101574.19;4865177;29;20095;-82
2022/06/15 02:21:43;;;;;;;14.88;3.20;;;;;;;14.46;100.00;101568.75;4851018;29;20025;-83
2022/06/15 02:24:11;;;;;;;14.00;2.78;;;;;;;14.46;100.00;101564.16;4848923;29;20037;-82
2022/06/15 02:26:38;;;;;;;15.27;3.15;;;;;;;14.45;100.00;101567.94;4865174;29;20029;-82
2022/06/15 02:29:17;;;;;;;14.52;2.70;;;;;;;14.43;100.00;101558.34;4849546;29;20060;-83
2022/06/15 02:31:43;;;;;;;15.60;2.75;;;;;;;14.47;100.00;101571.28;4850550;29;20029;-81
2022/06/15 02:34:09;;;;;;;16.98;2.97;;;;;;;14.46;100.00;101569.59;4838566;29;20032;-81
2022/06/15 02:36:35;;;;;;;19.98;3.47;;;;;;;14.45;100.00;101565.22;4848658;29;20037;-82
2022/06/15 02:39:05;;;;;;;11.55;2.50;;;;;;;14.47;100.00;101555.03;4850954;29;20033;-81
2022/06/15 02:41:32;;;;;;;15.25;2.38;;;;;;;14.48;100.00;101562.09;4864843;29;20037;-82
2022/06/15 02:44:00;;;;;;;14.23;3.05;;;;;;;14.50;100.00;101562.78;4867286;29;20452;-80
2022/06/15 02:46:27;;;;;;;15.32;2.78;;;;;;;14.45;100.00;101556.28;4857532;29;20017;-84
2022/06/15 02:48:53;;;;;;;16.85;2.90;;;;;;;14.47;100.00;101568.56;4858798;29;20041;-82
2022/06/15 02:51:42;;;;;;;11.48;2.75;;;;;;;14.31;100.00;101540.00;4880016;29;20040;-83
2022/06/15 02:54:39;;;;;;;15.90;2.55;;;;;;;14.50;100.00;101570.00;4852615;29;20029;-82
2022/06/15 02:57:04;;;;;;;17.83;2.55;;;;;;;14.50;100.00;101562.78;4867399;29;20523;-81
2022/06/15 02:59:30;;;;;;;12.73;2.60;;;;;;;14.53;100.00;101564.22;4851457;29;20129;-81
2022/06/15 03:01:57;;;;;;;17.83;3.40;;;;;;;14.45;100.00;101546.28;4865908;29;20116;-81
2022/06/15 03:04:22;;;;;;;14.18;2.40;;;;;;;14.55;100.00;101562.97;4851173;29;20029;-81
2022/06/15 03:06:49;;;;;;;13.27;2.20;;;;;;;14.52;100.00;101554.44;4881437;29;20108;-82
2022/06/15 03:09:14;;;;;;;16.20;2.42;;;;;;;14.42;100.00;101533.13;4884388;29;20120;-82
2022/06/15 03:11:40;;;;;;;14.40;2.70;;;;;;;14.59;100.00;101557.97;4884576;29;20073;-83
2022/06/15 03:14:06;;;;;;;12.75;1.95;;;;;;;14.61;100.00;101557.78;4884739;29;20052;-82
2022/06/15 03:16:32;;;;;;;15.23;2.78;;;;;;;14.48;100.00;101532.31;4867008;29;20085;-83
2022/06/15 03:18:58;;;;;;;16.90;2.58;;;;;;;14.68;100.00;101558.63;4847949;29;20029;-82
2022/06/15 03:21:23;;;;;;;10.43;2.20;;;;;;;14.66;100.00;101550.69;4852153;29;20036;-83
2022/06/15 03:23:48;;;;;;;12.70;2.50;;;;;;;14.80;100.00;101565.91;4879449;29;20029;-82
2022/06/15 03:26:15;;;;;;;14.57;2.40;;;;;;;14.67;100.00;101538.81;4865914;29;20045;-81
2022/06/15 03:28:41;;;;;;;11.80;2.80;;;;;;;14.90;100.00;101565.50;4871025;29;20112;-83
2022/06/15 03:31:07;;;;;;;11.13;2.50;;;;;;;15.00;100.00;101568.63;4864075;29;20117;-81
2022/06/15 03:33:32;;;;;;;15.75;2.85;;;;;;;15.08;100.00;101566.72;4849132;29;20033;-82
2022/06/15 03:35:58;;;;;;;12.35;2.25;;;;;;;15.11;100.00;101566.31;4869227;29;20033;-82
2022/06/15 03:38:24;;;;;;;15.63;2.75;;;;;;;15.16;100.00;101566.50;4866389;29;20558;-83
2022/06/15 03:40:50;;;;;;;11.35;2.08;;;;;;;15.15;100.00;101565.66;4863315;29;20125;-82
2022/06/15 03:43:16;;;;;;;10.95;2.53;;;;;;;15.18;100.00;101562.53;4848406;29;20061;-83
2022/06/15 03:45:42;;;;;;;14.70;2.67;;;;;;;15.29;100.00;101561.06;4861644;29;20041;-83
2022/06/15 03:48:08;;;;;;;16.92;2.88;;;;;;;15.22;100.00;101546.69;4848006;29;20542;-80
2022/06/15 03:50:35;;;;;;;17.25;2.88;;;;;;;15.32;100.00;101563.34;4863090;29;20033;-81
2022/06/15 03:53:02;;;;;;;10.15;2.25;;;;;;;15.33;100.00;101559.59;4881855;29;20124;-81
2022/06/15 03:55:28;;;;;;;14.52;2.38;;;;;;;15.37;100.00;101571.69;4882204;29;20074;-81
2022/06/15 03:57:54;;;;;;;14.07;2.38;;;;;;;15.41;100.00;101569.38;4882588;29;20119;-82
2022/06/15 04:00:22;;;;;;;14.13;2.28;;;;;;;15.47;100.00;101566.66;4880343;29;20029;-82
2022/06/15 04:02:47;;;;;;;17.20;2.50;;;;;;;15.62;100.00;101568.28;4874431;29;20405;-82
2022/06/15 04:05:20;;;;;;;11.45;2.53;;;;;;;15.66;100.00;101569.50;4864263;29;20038;-81
2022/06/15 04:10:31;;;;;;;11.10;2.25;;;;;;;15.75;100.00;101570.97;4867115;29;20102;-81
2022/06/15 04:12:56;;;;;;;13.13;2.05;;;;;;;15.84;100.00;101568.84;4839058;29;20033;-83
2022/06/15 04:15:21;;;;;;;11.82;2.80;;;;;;;15.89;100.00;101571.75;4848127;29;20038;-83
2022/06/15 04:17:47;;;;;;;15.30;2.42;;;;;;;15.88;100.00;101565.47;4875108;29;20024;-82
2022/06/15 04:20:31;;;;;;;11.73;2.42;;;;;;;16.00;100.00;101570.25;4872030;29;20047;-81
2022/06/15 04:22:57;;;;;;;19.45;2.70;;;;;;;15.95;100.00;101573.59;4882909;29;20039;-80
2022/06/15 04:25:23;;;;;;;13.90;2.47;;;;;;;16.09;100.00;101577.94;4882684;29;20092;-83
2022/06/15 04:27:48;;;;;;;13.85;2.30;;;;;;;16.19;100.00;101581.00;4840928;29;20452;-82
2022/06/15 04:30:14;;;;;;;17.80;2.55;;;;;;;16.28;100.00;101569.88;4869833;29;20025;-81
2022/06/15 04:32:39;;;;;;;14.45;2.70;;;;;;;16.36;100.00;101570.47;4848392;29;20037;-82
2022/06/15 04:35:05;;;;;;;14.63;2.42;;;;;;;16.39;100.00;101574.59;4883002;29;20033;-82
2022/06/15 04:37:30;;;;;;;13.63;2.20;;;;;;;16.24;100.00;101546.94;4847101;29;20520;-82
2022/06/15 04:39:56;;;;;;;10.07;2.17;;;;;;;16.42;100.00;101575.03;4864298;29;20033;-82
2022/06/15 04:42:21;;;;;;;10.90;2.30;;;;;;;16.57;100.00;101580.13;4849043;29;20375;-81
2022/06/15 04:44:46;;;;;;;10.90;2.67;;;;;;;16.73;100.00;101581.47;4868168;29;20426;-81
2022/06/15 04:47:12;;;;;;;15.85;2.50;;;;;;;16.62;100.00;101574.03;4874754;29;20056;-82
2022/06/15 04:49:37;;;;;;;14.48;2.25;;;;;;;16.66;100.00;101569.84;4853294;29;20464;-83
2022/06/15 04:52:03;;;;;;;10.95;2.35;;;;;;;16.65;100.00;101570.88;4871520;29;20036;-82
2022/06/15 04:54:28;;;;;;;15.60;2.17;;;;;;;16.64;100.00;101583.63;4880465;29;20066;-83
2022/06/15 04:56:54;;;;;;;9.77;2.25;;;;;;;16.59;100.00;101574.50;4857720;29;20069;-83
2022/06/15 04:59:19;;;;;;;11.45;1.90;;;;;;;16.62;100.00;101593.03;4853567;29;20040;-83
2022/06/15 05:01:45;;;;;;;14.20;2.28;;;;;;;16.70;100.00;101589.25;4850755;29;20033;-83
2022/06/15 05:04:10;;;;;;;11.50;2.10;;;;;;;16.76;100.00;101591.94;4850243;29;20452;-83
2022/06/15 05:06:38;;;;;;;11.65;2.70;;;;;;;16.68;100.00;101584.84;4866408;29;20029;-83
2022/06/15 05:09:06;;;;;;;10.02;2.17;;;;;;;16.68;100.00;101594.88;4853901;29;20074;-83
2022/06/15 05:11:33;;;;;;;15.70;2.63;;;;;;;16.55;100.00;101575.97;4849432;29;20033;-82
2022/06/15 05:13:58;;;;;;;13.55;2.50;;;;;;;16.63;100.00;101597.44;4866937;29;20034;-82
2022/06/15 05:16:24;;;;;;;12.18;1.95;;;;;;;16.60;100.00;101592.44;4875018;29;20448;-84
2022/06/15 05:18:50;;;;;;;11.55;2.25;;;;;;;16.72;100.00;101593.41;4851759;29;20032;-84
2022/06/15 05:21:16;;;;;;;14.98;2.22;;;;;;;16.60;100.00;101582.41;4867962;29;20101;-82
2022/06/15 05:23:41;;;;;;;11.30;2.05;;;;;;;16.76;100.00;101594.66;4850332;29;20078;-83
2022/06/15 05:26:37;;;;;;;10.85;2.08;;;;;;;16.81;100.00;101597.53;4839909;29;20123;-85
2022/06/15 05:29:02;;;;;;;10.30;1.92;;;;;;;16.79;100.00;101599.66;4866716;29;20045;-82
2022/06/15 05:31:27;;;;;;;9.82;1.92;;;;;;;16.84;100.00;101594.38;4834472;29;20038;-83
2022/06/15 05:33:55;;;;;;;11.90;2.00;;;;;;;16.80;100.00;101598.59;4877428;29;20043;-83
2022/06/15 05:36:27;;;;;;;12.80;1.95;;;;;;;16.70;100.00;101587.34;4854534;29;20449;-82
2022/06/15 05:38:53;;;;;;;12.15;2.30;;;;;;;16.81;100.00;101605.69;4872576;29;20101;-84
2022/06/15 05:41:18;;;;;;;11.15;1.85;;;;;;;16.73;100.00;101597.78;4864676;29;20038;-84
2022/06/15 05:43:45;;;;;;;10.55;1.95;;;;;;;16.83;100.00;101594.59;4826775;29;20089;-80
2022/06/15 05:46:12;;;;;;;11.35;2.80;;;;;;;17.25;100.00;101608.44;4855183;29;20109;-80
2022/06/15 05:48:38;;;;;;;11.23;1.88;;;;;;;16.99;100.00;101595.94;4844320;29;20033;-80
2022/06/15 05:51:05;;;;;;;8.02;1.63;;;;;;;17.43;100.00;101605.78;4840336;29;20030;-81
2022/06/15 05:53:30;;;;;;;8.00;1.80;;;;;;;18.08;100.00;101589.75;4857207;29;20045;-83
2022/06/15 05:55:56;;;;;;;9.45;1.70;;;;;;;18.10;100.00;101607.75;4857004;29;20029;-80
2022/06/15 05:58:21;;;;;;;13.35;2.20;;;;;;;18.06;100.00;101607.38;4850679;29;20041;-81
2022/06/15 06:00:46;;;;;;;7.43;2.38;;;;;;;17.83;100.00;101586.31;4868946;29;20372;-80
2022/06/15 06:03:12;;;;;;;9.38;1.80;;;;;;;17.81;100.00;101600.16;4885429;29;20062;-81
2022/06/15 06:05:37;;;;;;;10.57;2.72;;;;;;;18.01;100.00;101601.78;4857247;29;20069;-81
2022/06/15 06:08:03;;;;;;;9.32;1.90;;;;;;;18.02;100.00;101607.00;4838549;29;20074;-79
2022/06/15 06:10:28;;;;;;;11.30;2.10;;;;;;;18.17;100.00;101612.03;4853200;29;20108;-82
2022/06/15 06:12:53;;;;;;;10.40;2.15;;;;;;;18.38;100.00;101604.44;4842313;29;20033;-84
2022/06/15 06:15:18;;;;;;;13.65;2.00;;;;;;;18.76;100.00;101618.56;4877699;29;20421;-81
2022/06/15 06:17:45;;;;;;;11.18;2.63;;;;;;;18.54;100.00;101617.38;4883769;29;20025;-81
2022/06/15 06:20:11;;;;;;;6.70;1.65;;;;;;;18.37;100.00;101597.31;4848958;29;20073;-82
2022/06/15 06:22:36;;;;;;;8.05;1.92;;;;;;;18.59;100.00;101612.09;4837385;29;20025;-81
2022/06/15 06:25:01;;;;;;;7.63;1.90;;;;;;;18.83;100.00;101601.25;4855041;29;20040;-83
2022/06/15 06:27:27;;;;;;;10.73;2.03;;;;;;;19.14;99.57;101598.22;4864549;29;20120;-81
2022/06/15 06:29:52;;;;;;;10.38;2.05;;;;;;;19.15;98.74;101605.31;4867200;29;20045;-81
2022/06/15 06:32:18;;;;;;;8.10;1.60;;;;;;;19.05;97.37;101577.00;4857267;29;20123;-85
2022/06/15 06:34:43;;;;;;;7.00;1.83;;;;;;;19.18;97.73;101602.13;4857965;29;20068;-81
2022/06/15 06:37:13;;;;;;;10.02;1.90;;;;;;;19.01;98.96;101612.09;4850960;29;20022;-85
2022/06/15 06:39:39;;;;;;;6.90;1.50;;;;;;;19.13;98.43;101604.72;4865863;29;20095;-85
2022/06/15 06:42:05;;;;;;;7.85;1.60;;;;;;;19.53;95.67;101609.44;4865878;29;20085;-85
2022/06/15 06:44:30;;;;;;;13.88;2.50;;;;;;;19.54;95.03;101605.69;4841438;29;20062;-85
2022/06/15 06:46:56;;;;;;;9.38;1.88;;;;;;;20.08;92.42;101608.19;4880677;29;20048;-81
2022/06/15 06:49:23;;;;;;;6.63;1.70;;;;;;;20.04;91.78;101618.78;4883014;29;20667;-81
2022/06/15 06:51:49;;;;;;;8.13;1.67;;;;;;;19.96;90.60;101616.41;4861366;29;20052;-81
2022/06/15 06:54:20;;;;;;;8.93;1.80;;;;;;;19.83;91.71;101624.88;4878380;29;20033;-84
2022/06/15 06:56:46;;;;;;;8.27;2.00;;;;;;;19.54;92.75;101613.88;4872190;29;20044;-84
2022/06/15 06:59:13;;;;;;;10.32;2.10;;;;;;;19.47;92.99;101626.81;4863147;29;20124;-86
2022/06/15 07:01:41;;;;;;;10.10;1.90;;;;;;;19.33;93.61;101617.19;4870100;29;20045;-82
2022/06/15 07:04:07;;;;;;;8.27;1.85;;;;;;;19.18;93.37;101615.78;4897783;29;20039;-84
2022/06/15 07:06:33;;;;;;;10.35;2.20;;;;;;;19.10;94.61;101612.56;4890486;29;20136;-87
2022/06/15 07:08:59;;;;;;;9.45;2.10;;;;;;;19.50;93.95;101615.38;4877299;29;20060;-87
2022/06/15 07:11:24;;;;;;;11.35;1.90;;;;;;;18.82;94.16;101509.63;5291906;24;20056;-86
2022/06/15 07:13:51;;;;;;;10.13;2.28;;;;;;;18.45;94.42;101477.09;4819603;29;20052;-81
2022/06/15 07:16:19;;;;;;;10.45;2.25;;;;;;;18.63;95.05;101533.41;4821258;29;20114;-83
2022/06/15 07:18:45;;;;;;;6.93;1.70;;;;;;;18.42;93.99;101496.63;4827614;29;20512;-87
2022/06/15 07:21:25;;;;;;;11.68;2.55;;;;;;;18.87;91.26;101556.09;4822297;29;20039;-83
2022/06/15 07:23:55;;;;;;;6.75;1.83;;;;;;;18.21;92.26;101496.13;4822666;29;20450;-87
2022/06/15 07:26:25;;;;;;;8.38;1.90;;;;;;;18.30;91.26;101491.97;4821390;29;20023;-86
2022/06/15 07:28:50;;;;;;;7.53;1.90;;;;;;;18.39;90.69;101506.09;4830135;29;20009;-89
2022/06/15 07:31:22;;;;;;;11.77;2.50;;;;;;;19.52;89.57;101616.00;5222731;24;20121;-91
2022/06/15 07:33:47;;;;;;;10.02;1.73;;;;;;;19.33;90.85;101625.38;4877752;29;20086;-82
2022/06/15 07:36:13;;;;;;;8.40;1.70;;;;;;;18.41;90.81;101511.31;4867161;29;20029;-87
2022/06/15 07:38:40;;;;;;;9.15;1.95;;;;;;;18.39;91.11;101562.50;4868290;29;20046;-87
2022/06/15 07:41:06;;;;;;;9.68;2.13;;;;;;;19.13;91.93;101640.19;4869479;29;20029;-87
2022/06/15 07:43:31;;;;;;;8.65;2.20;;;;;;;18.91;90.89;101551.84;4866451;29;20068;-87
2022/06/15 07:45:57;;;;;;;10.23;2.47;;;;;;;18.67;91.18;101520.94;4872041;29;20025;-88
2022/06/15 07:51:07;;;;;;;7.00;2.15;;;;;;;19.10;89.70;101579.81;4869181;29;20041;-87
2022/06/15 07:53:34;;;;;;;5.90;1.63;;;;;;;18.74;89.55;101533.47;4864582;29;20040;-87
2022/06/15 07:56:00;;;;;;;8.15;2.35;;;;;;;19.27;89.55;101650.88;4869413;29;20033;-87
2022/06/15 07:58:26;;;;;;;7.00;1.80;;;;;;;18.45;89.57;101550.69;4873216;29;20034;-87
2022/06/15 08:00:52;;;;;;;6.95;1.77;;;;;;;18.28;90.63;101531.44;4869614;29;20034;-86
2022/06/15 08:03:18;;;;;;;9.40;2.38;;;;;;;18.34;91.68;101575.97;4865058;29;20037;-84
2022/06/15 08:05:47;;;;;;;9.82;2.40;;;;;;;19.01;92.18;101664.75;4866758;29;20033;-86
2022/06/15 08:08:17;;;;;;;15.73;2.40;;;;;;;18.69;91.35;101557.00;4865625;29;20018;-86
2022/06/15 08:10:43;;;;;;;6.88;2.10;;;;;;;18.55;91.21;101519.06;4873396;29;20068;-86
2022/06/15 08:13:09;;;;;;;7.40;2.05;;;;;;;18.82;90.35;101564.97;4869611;29;20037;-86
2022/06/15 08:15:36;;;;;;;5.65;1.52;;;;;;;18.87;90.78;101581.44;4868128;29;20018;-86
2022/06/15 08:18:07;;;;;;;9.32;2.10;;;;;;;19.21;90.74;101645.31;4871828;29;20052;-85
2022/06/15 08:20:37;;;;;;;9.88;2.38;;;;;;;19.34;90.97;101662.53;4880885;29;20024;-87
2022/06/15 08:23:09;;;;;;;10.52;2.40;;;;;;;18.95;90.82;101611.13;4882322;29;20025;-88
2022/06/15 08:25:39;;;;;;;10.27;2.40;;;;;;;18.61;90.54;101585.44;4872023;29;20228;-88
2022/06/15 08:28:06;;;;;;;14.57;2.72;;;;;;;18.51;90.60;101582.44;4871079;29;20046;-82
2022/06/15 08:30:32;;;;;;;8.63;2.17;;;;;;;18.36;91.34;101574.69;4853313;29;20567;-83
2022/06/15 08:32:57;;;;;;;6.70;1.92;;;;;;;18.47;91.78;101619.38;4854247;29;20100;-82
2022/06/15 08:35:23;;;;;;;9.32;2.10;;;;;;;18.03;92.38;101591.50;4877544;29;20048;-83
2022/06/15 08:37:49;;;;;;;7.07;1.90;;;;;;;18.01;92.98;101594.47;4855472;29;20036;-82
2022/06/15 08:40:16;;;;;;;10.27;2.47;;;;;;;17.98;93.41;101589.47;4871424;29;20033;-84
2022/06/15 08:43:01;;;;;;;13.55;2.20;;;;;;;17.77;93.57;101539.03;4870429;29;20049;-85
2022/06/15 08:45:45;;;;;;;9.02;2.50;;;;;;;18.73;93.96;101684.44;4870946;29;20085;-84
2022/06/15 08:48:35;;;;;;;7.53;1.92;;;;;;;18.91;93.91;101674.56;4879073;29;20036;-84
2022/06/15 08:51:18;;;;;;;9.85;2.03;;;;;;;18.71;92.80;101670.22;4874201;29;20089;-83
2022/06/15 08:54:01;;;;;;;7.30;1.73;;;;;;;18.89;92.33;101663.88;4885738;29;20057;-82
2022/06/15 08:56:36;;;;;;;7.90;2.13;;;;;;;18.84;92.18;101669.22;4867966;29;20024;-82
2022/06/15 08:59:24;;;;;;;7.85;2.05;;;;;;;18.82;93.42;101668.59;4883275;29;20033;-82
2022/06/15 09:01:53;;;;;;;9.45;2.20;;;;;;;18.71;93.78;101659.31;4890325;29;20044;-83
2022/06/15 09:04:30;;;;;;;7.97;2.20;;;;;;;18.80;93.45;101670.72;4870996;29;20092;-79
2022/06/15 09:07:25;;;;;;;11.75;2.28;;;;;;;19.08;93.21;101664.63;4852890;29;20036;-80
2022/06/15 09:10:09;;;;;;;9.85;2.45;;;;;;;19.40;91.32;101653.38;4870798;29;20045;-82
2022/06/15 09:12:50;;;;;;;7.32;1.90;;;;;;;19.37;91.99;101651.13;4853528;29;20033;-84
2022/06/15 09:15:33;;;;;;;8.93;2.33;;;;;;;19.52;91.22;101658.84;4872330;29;20057;-84
2022/06/15 09:18:22;;;;;;;8.88;2.10;;;;;;;19.50;90.86;101653.59;4875401;29;20017;-81
2022/06/15 09:21:07;;;;;;;10.43;3.00;;;;;;;19.17;91.71;101651.47;4852851;29;20018;-81
2022/06/15 09:23:54;;;;;;;;;;;;;;;19.65;90.88;101659.47;4855545;29;20385;-80
2022/06/15 09:26:30;;;;;;;6.05;1.83;;;;;;;19.89;90.57;101662.16;4868828;29;19928;-80
2022/06/15 09:29:25;;;;;;;7.55;2.10;;;;;;;20.21;88.76;101662.56;4879553;29;20020;-82
2022/06/15 09:32:00;;;;;;;8.95;2.33;;;;;;;20.34;88.55;101665.00;4841325;29;20522;-82
2022/06/15 09:34:35;;;;;;;10.02;2.10;;;;;;;20.37;86.56;101659.06;4858192;29;20021;-83
2022/06/15 09:37:03;;;;;;;9.27;2.17;;;;;;;20.64;87.37;101653.84;4879629;29;20062;-86
2022/06/15 09:39:29;;;;;;;8.20;2.47;;;;;;;20.72;85.42;101651.78;4861082;29;20029;-84
2022/06/15 09:42:05;;;;;;;7.97;2.10;;;;;;;20.77;85.09;101665.56;4865523;29;20037;-84
2022/06/15 09:45:08;;;;;;;8.20;2.03;;;;;;;20.68;86.96;101667.03;4880792;29;20029;-84
2022/06/15 09:47:47;;;;;;;8.77;2.00;;;;;;;20.75;84.85;101664.97;4884997;29;20029;-83
2022/06/15 09:50:39;;;;;;;6.88;1.95;;;;;;;20.77;84.46;101660.91;4883907;29;20033;-86
2022/06/15 09:53:10;;;;;;;7.70;2.20;;;;;;;20.87;84.44;101665.75;4883616;29;20108;-84
2022/06/15 09:55:39;;;;;;;8.23;2.25;;;;;;;20.83;84.06;101664.59;4881242;29;20021;-84
2022/06/15 09:58:07;;;;;;;7.68;2.22;;;;;;;21.02;84.33;101674.19;4865996;29;20088;-82
2022/06/15 10:00:36;;;;;;;6.28;2.40;;;;;;;21.17;84.40;101659.94;4873636;29;20036;-81
2022/06/15 10:03:06;;;;;;;8.98;1.95;;;;;;;21.28;84.60;101664.50;4863667;29;20022;-81
2022/06/15 10:05:38;;;;;;;7.15;1.90;;;;;;;21.44;84.00;101673.81;4867040;29;20029;-86
2022/06/15 10:08:11;;;;;;;8.50;2.40;;;;;;;21.48;83.20;101676.88;4893487;29;20062;-87
2022/06/15 10:13:15;;;;;;;7.97;1.90;;;;;;;21.51;82.98;101674.47;5297032;24;20053;-87
2022/06/15 10:15:43;;;;;;;8.10;1.98;;;;;;;21.57;82.81;101668.00;5055097;24;20046;-90
2022/06/15 10:23:23;;;;;;;9.98;2.50;;;;;;;20.56;83.75;101544.88;4826233;29;20047;-89
2022/06/15 10:25:55;;;;;;;8.55;2.10;;;;;;;20.64;82.72;101547.19;4830660;29;20015;-90
2022/06/15 10:28:31;;;;;;;8.10;2.25;;;;;;;20.75;82.21;101574.72;4843377;29;20015;-88
2022/06/15 10:31:04;;;;;;;7.85;2.28;;;;;;;21.10;81.28;101630.00;5307761;24;21020;-79
2022/06/15 10:44:29;;;;;;;5.05;1.70;;;;;;;21.37;78.94;101664.94;5642247;24;20068;-83
2022/06/15 10:47:07;;;;;;;5.20;1.70;;;;;;;21.34;76.80;101668.16;4874196;29;20018;-87
2022/06/15 10:49:45;;;;;;;7.38;2.17;;;;;;;21.19;75.84;101641.38;4881289;29;20006;-87
2022/06/15 10:52:27;;;;;;;6.10;1.67;;;;;;;21.07;76.44;101616.00;4860273;29;20010;-85
2022/06/15 11:04:20;;;;;;;5.68;1.50;;;;;;;21.47;72.41;101691.66;4865604;29;20078;-83
2022/06/15 11:06:49;;;;;;;5.28;1.60;;;;;;;21.44;73.91;101682.03;4869763;29;20022;-83
2022/06/15 11:09:18;;;;;;;4.80;1.58;;;;;;;21.36;72.40;101690.69;4856913;29;20029;-84
2022/06/15 11:11:43;;;;;;;5.90;1.67;;;;;;;21.29;72.49;101677.13;4860630;29;20025;-84
2022/06/15 11:14:28;;;;;;;6.47;1.50;;;;;;;21.23;72.21;101682.78;4855723;29;20105;-83
2022/06/15 11:19:56;;;;;;;8.27;1.65;;;;;;;21.38;72.82;101687.69;4888929;29;19999;-84
2022/06/15 11:22:25;;;;;;;6.78;2.00;;;;;;;21.48;74.63;101688.66;4889857;29;20030;-82
2022/06/15 11:25:01;;;;;;;7.93;2.22;;;;;;;21.36;75.34;101677.00;4860953;29;20028;-84
2022/06/15 11:27:33;;;;;;;7.68;1.77;;;;;;;21.46;76.21;101690.00;4856570;29;20053;-82
2022/06/15 11:30:08;;;;;;;5.30;1.60;;;;;;;21.58;74.80;101686.06;4854086;29;20469;-84
2022/06/15 11:32:35;;;;;;;;;;;;;;;21.44;73.94;101686.69;4883349;29;20454;-84
2022/06/15 11:35:13;;;;;;;4.68;1.77;;;;;;;21.38;73.57;101685.75;4878853;29;19916;-83
2022/06/15 11:37:44;;;;;;;4.65;1.42;;;;;;;21.29;72.96;101659.84;4881562;29;20029;-82
2022/06/15 11:40:34;;;;;;;7.28;2.10;;;;;;;21.38;72.59;101663.88;4872414;29;20021;-82
2022/06/15 11:43:01;;;;;;;6.72;1.70;;;;;;;21.33;73.16;101637.22;4871146;29;20037;-83
2022/06/15 11:45:34;;;;;;;8.50;2.10;;;;;;;21.22;75.27;101653.72;4863859;29;20048;-82
2022/06/15 11:48:35;;;;;;;5.72;2.03;;;;;;;21.32;77.11;101662.94;4882286;29;20026;-84
2022/06/15 11:51:39;;;;;;;8.15;2.00;;;;;;;21.44;77.26;101659.31;4876514;29;20040;-82
2022/06/15 11:54:43;;;;;;;7.20;1.85;;;;;;;21.72;76.09;101663.78;4866562;29;20061;-83
2022/06/15 11:57:41;;;;;;;6.28;1.70;;;;;;;21.79;76.60;101659.81;4866297;29;20033;-83
2022/06/15 12:00:18;;;;;;;9.32;2.05;;;;;;;21.84;76.32;101658.22;4883221;29;20038;-84
2022/06/15 12:03:01;;;;;;;6.53;1.83;;;;;;;21.87;75.53;101654.97;4866440;29;20017;-84
2022/06/15 12:05:33;;;;;;;4.43;1.60;;;;;;;22.00;74.87;101657.34;4856761;29;20016;-82
2022/06/15 12:08:24;;;;;;;6.63;1.80;;;;;;;22.07;74.86;101660.72;4860872;29;20083;-85
2022/06/15 12:10:58;;;;;;;10.27;1.88;;;;;;;22.19;74.41;101668.84;4877900;29;20021;-84